Goliah — WDD5908 — position and weather

sailwx.info

Track history (hours):
 
Tides and Currents Weather Stations Pressure Air Temp Water Temp Dewpoint Dewpoint Depression Visibility Wind Speed Wind Dir Waves Ship Positions

Goliah

Owner: Crowley Marine Services, Inc., Seattle, WA. More information available from US FCC via Universal Licensing System and Coast Guard Vessel Documentation Center.

Last reported at 2015-Mar-28 17:33 UTC. Time now 2015-Mar-28 17:50 UTC.
Position N 33°45' W 118°13'.

Length 33 m; draft 4.8 m.

Type: Tug. MMSI: 366898250.

Date/timePositionNaut miles runAvg speedWind from/ knotsBaromVisibWave heightAir tempDewpointWater temp
2015-Mar-28 17:33N 33°45' W 118°13'1 1.3
2015-Mar-28 16:33N 33°44' W 118°12'1 1.5
2015-Mar-28 15:33N 33°44' W 118°11'4 4.1
2015-Mar-28 14:33N 33°43' W 118°16'1 0.7
2015-Mar-28 13:33N 33°44' W 118°15'0 0.2
2015-Mar-28 12:31N 33°44' W 118°16'2 2.5
2015-Mar-28 11:33N 33°46' W 118°16'2 1.9
2015-Mar-28 10:33N 33°44' W 118°17'0 0.3
2015-Mar-28 09:33N 33°44' W 118°17'0 0.0
2015-Mar-28 08:33N 33°44' W 118°17'0 0.0
2015-Mar-28 07:33N 33°44' W 118°17'0 0.0
2015-Mar-28 06:33N 33°44' W 118°17'0 0.0
2015-Mar-28 05:32N 33°44' W 118°17'0 0.0
2015-Mar-28 04:28N 33°44' W 118°17'0 0.0
2015-Mar-28 03:33N 33°44' W 118°17'0 0.0
2015-Mar-28 02:31N 33°44' W 118°17'0 0.0
2015-Mar-28 01:32N 33°44' W 118°17'0 0.0
2015-Mar-28 00:29N 33°44' W 118°17'0 0.0
2015-Mar-27 23:30N 33°44' W 118°17'1 1.6
2015-Mar-27 22:33N 33°44' W 118°15'1 1.2
2015-Mar-27 21:33N 33°43' W 118°15'1 1.3
2015-Mar-27 20:33N 33°44' W 118°16'1 0.3
2015-Mar-27 17:30N 33°44' W 118°17'0 0.0
2015-Mar-27 16:22N 33°44' W 118°17'0 0.0
2015-Mar-27 15:33N 33°44' W 118°17'1 0.3
2015-Mar-27 13:19N 33°44' W 118°16'2 2.7
2015-Mar-27 12:33N 33°45' W 118°14'1 0.7
2015-Mar-27 11:33N 33°45' W 118°14'2 2.0
2015-Mar-27 10:33N 33°43' W 118°12'4 3.8
2015-Mar-27 09:33N 33°44' W 118°17'0 0.1
2015-Mar-27 08:34N 33°44' W 118°17'2 0.4
2015-Mar-27 03:33N 33°43' W 118°15'3 2.5
2015-Mar-27 02:34N 33°45' W 118°14'1 0.5
2015-Mar-27 01:33N 33°45' W 118°14'2 2.0
2015-Mar-27 00:31N 33°43' W 118°16'1 0.7
2015-Mar-26 23:33N 33°44' W 118°15'1 0.7
2015-Mar-26 21:31N 33°44' W 118°17'0 0.0
2015-Mar-26 20:33N 33°44' W 118°17'1 0.9
2015-Mar-26 19:29N 33°45' W 118°16'1 0.5
2015-Mar-26 18:33N 33°45' W 118°16'0 0.5
2015-Mar-26 17:33N 33°44' W 118°17'0 0.0
2015-Mar-26 16:32N 33°44' W 118°17'0 0.0
2015-Mar-26 15:33N 33°44' W 118°17'1 0.8
2015-Mar-26 14:33N 33°44' W 118°16'1 0.5
2015-Mar-26 13:33N 33°43' W 118°16'0 0.4
2015-Mar-26 12:33N 33°43' W 118°16'1 1.4
2015-Mar-26 11:33N 33°44' W 118°17'0 0.0
2015-Mar-26 10:33N 33°44' W 118°17'0 0.0
2015-Mar-26 09:33N 33°44' W 118°17'0 0.0
2015-Mar-26 08:33N 33°44' W 118°17'0 0.0
2015-Mar-26 07:33N 33°44' W 118°17'0 0.0
2015-Mar-26 06:33N 33°44' W 118°17'0 0.0
2015-Mar-26 05:33N 33°44' W 118°17'0 0.0
2015-Mar-26 03:05N 33°44' W 118°17'0 0.0
2015-Mar-26 02:31N 33°44' W 118°17'3 2.8
2015-Mar-26 01:33N 33°43' W 118°14'2 2.1
2015-Mar-26 00:33N 33°45' W 118°13'0 0.4
2015-Mar-25 23:33N 33°45' W 118°13'0 0.0
2015-Mar-25 22:33N 33°45' W 118°13'1 1.0
2015-Mar-25 21:33N 33°44' W 118°12'1 1.0
2015-Mar-25 20:33N 33°44' W 118°12'3 2.7
2015-Mar-25 19:33N 33°43' W 118°15'2 2.2
2015-Mar-25 18:32N 33°44' W 118°17'0 0.0
2015-Mar-25 17:32N 33°44' W 118°17'0 0.0
2015-Mar-25 16:33N 33°44' W 118°17'0 0.0
2015-Mar-25 15:26N 33°44' W 118°17'1 0.9
2015-Mar-25 14:28N 33°45' W 118°16'0 0.4
2015-Mar-25 13:33N 33°45' W 118°16'2 2.3
2015-Mar-25 12:33N 33°43' W 118°15'3 3.3
2015-Mar-25 11:33N 33°46' W 118°16'1 0.6
2015-Mar-25 10:20N 33°45' W 118°16'3 3.8
2015-Mar-25 09:33N 33°43' W 118°13'1 0.7
2015-Mar-25 08:33N 33°44' W 118°13'3 3.1
2015-Mar-25 07:33N 33°44' W 118°17'0 0.0
2015-Mar-25 06:31N 33°44' W 118°17'0 0.0
2015-Mar-25 05:32N 33°44' W 118°17'0 0.0
2015-Mar-25 04:33N 33°44' W 118°17'0 0.0
2015-Mar-25 03:33N 33°44' W 118°17'0 0.0
2015-Mar-25 02:03N 33°44' W 118°17'0 0.0
2015-Mar-25 01:30N 33°44' W 118°17'0 0.0
2015-Mar-25 00:24N 33°44' W 118°17'1 0.7
2015-Mar-24 23:15N 33°45' W 118°16'0 0.1
2015-Mar-24 21:12N 33°45' W 118°16'0 0.3
2015-Mar-24 20:15N 33°45' W 118°17'1 0.5
2015-Mar-24 18:15N 33°44' W 118°17'0 0.0
2015-Mar-24 17:18N 33°44' W 118°17'3 0.8
2015-Mar-24 13:23N 33°45' W 118°13'1 1.4
2015-Mar-24 12:33N 33°46' W 118°13'0 0.0
2015-Mar-24 11:33N 33°46' W 118°13'5 4.5
2015-Mar-24 10:32N 33°42' W 118°10'3 2.8
2015-Mar-24 09:22N 33°45' W 118°13'0 0.1
2015-Mar-24 08:33N 33°45' W 118°13'0 0.0
2015-Mar-24 07:32N 33°45' W 118°13'1 0.5
2015-Mar-24 06:28N 33°45' W 118°12'0 0.5
2015-Mar-24 05:32N 33°45' W 118°13'0 0.2
2015-Mar-24 04:09N 33°45' W 118°13'0 0.0
2015-Mar-24 03:33N 33°45' W 118°13'0 0.0
2015-Mar-24 02:10N 33°45' W 118°13'3 3.7
2015-Mar-24 01:23N 33°44' W 118°10'0 0.1
2015-Mar-24 00:33N 33°44' W 118°10'6 2.4
2015-Mar-23 22:11N 33°44' W 118°17'0 0.0
2015-Mar-23 21:32N 33°44' W 118°17'0 0.0
2015-Mar-23 20:10N 33°44' W 118°17'0 0.0
2015-Mar-23 19:29N 33°44' W 118°17'0 0.0
2015-Mar-23 18:33N 33°44' W 118°17'0 0.0
2015-Mar-23 16:24N 33°44' W 118°17'0 0.0
2015-Mar-23 15:13N 33°44' W 118°17'0 0.0
2015-Mar-23 11:13N 33°44' W 118°17'4 0.4
2015-Mar-23 03:11N 33°45' W 118°12'4 1.0
2015-Mar-22 23:33N 33°44' W 118°17'1 0.1
2015-Mar-22 11:22N 33°45' W 118°16'1 0.7
2015-Mar-22 10:31N 33°45' W 118°16'3 0.4
2015-Mar-22 04:20N 33°46' W 118°13'1 0.6
2015-Mar-22 02:30N 33°45' W 118°13'3 0.4
2015-Mar-21 19:16N 33°44' W 118°17'4 1.0
2015-Mar-21 15:11N 33°44' W 118°12'2 0.8
2015-Mar-21 13:18N 33°44' W 118°14'3 1.0
2015-Mar-21 10:33N 33°44' W 118°17'0 0.0
2015-Mar-21 09:19N 33°44' W 118°17'0 0.0
2015-Mar-21 04:24N 33°44' W 118°17'1 0.3
2015-Mar-21 02:26N 33°44' W 118°16'1 1.3
2015-Mar-21 01:33N 33°44' W 118°15'0 0.2
2015-Mar-21 00:33N 33°44' W 118°15'1 1.5
2015-Mar-20 23:33N 33°44' W 118°17'1 1.0
2015-Mar-20 22:32N 33°45' W 118°16'1 0.6
2015-Mar-20 21:33N 33°46' W 118°16'3 1.2
2015-Mar-20 19:14N 33°43' W 118°13'2 2.1
2015-Mar-20 18:26N 33°45' W 118°13'0 0.3
2015-Mar-20 17:33N 33°45' W 118°13'1 1.3
2015-Mar-20 16:32N 33°44' W 118°13'1 0.3
2015-Mar-20 14:03N 33°45' W 118°13'2 2.9
2015-Mar-20 13:27N 33°46' W 118°13'1 0.7
2015-Mar-20 11:32N 33°45' W 118°13'0 0.1
2015-Mar-20 10:33N 33°45' W 118°13'0 0.0
2015-Mar-20 09:33N 33°45' W 118°13'0 0.0
2015-Mar-20 08:33N 33°45' W 118°13'0 0.0
2015-Mar-20 07:33N 33°45' W 118°13'1 1.3
2015-Mar-20 06:33N 33°46' W 118°13'0 0.0
2015-Mar-20 05:11N 33°46' W 118°13'1 1.3
2015-Mar-20 04:34N 33°45' W 118°13'3 0.8
2015-Mar-20 00:31N 33°44' W 118°17'0 0.0
2015-Mar-19 23:18N 33°44' W 118°17'0 0.0
2015-Mar-19 21:05N 33°44' W 118°17'0 0.0
2015-Mar-19 20:25N 33°44' W 118°17'0 0.0
2015-Mar-19 19:33N 33°44' W 118°17'0 0.0
2015-Mar-19 17:32N 33°44' W 118°17'0 0.0
2015-Mar-19 16:30N 33°44' W 118°17'0 0.0
2015-Mar-19 15:26N 33°44' W 118°17'4 3.7
2015-Mar-19 14:29N 33°44' W 118°12'4 1.8
2015-Mar-19 12:31N 33°45' W 118°17'1 0.5
2015-Mar-19 11:26N 33°46' W 118°16'0 0.3
2015-Mar-19 10:25N 33°46' W 118°16'2 0.3
2015-Mar-19 04:19N 33°44' W 118°16'2 2.1
2015-Mar-19 03:33N 33°45' W 118°16'0 0.3
2015-Mar-19 02:33N 33°45' W 118°16'  
Track history (hours):
 
Tides and Currents Weather Stations Pressure Air Temp Water Temp Dewpoint Dewpoint Depression Visibility Wind Speed Wind Dir Waves Ship Positions

Goliah

Owner: Crowley Marine Services, Inc., Seattle, WA. More information available from US FCC via Universal Licensing System and Coast Guard Vessel Documentation Center.

Last reported at 2015-Mar-28 17:33 UTC. Time now 2015-Mar-28 17:50 UTC.
Position N 33°45' W 118°13'.

Length 33 m; draft 4.8 m.

Type: Tug. MMSI: 366898250.

Date/timePositionNaut miles runAvg speedWind from/ knotsBaromVisibWave heightAir tempDewpointWater temp
2015-Mar-28 17:33N 33°45' W 118°13'1 1.3
2015-Mar-28 16:33N 33°44' W 118°12'1 1.5
2015-Mar-28 15:33N 33°44' W 118°11'4 4.1
2015-Mar-28 14:33N 33°43' W 118°16'1 0.7
2015-Mar-28 13:33N 33°44' W 118°15'0 0.2
2015-Mar-28 12:31N 33°44' W 118°16'2 2.5
2015-Mar-28 11:33N 33°46' W 118°16'2 1.9
2015-Mar-28 10:33N 33°44' W 118°17'0 0.3
2015-Mar-28 09:33N 33°44' W 118°17'0 0.0
2015-Mar-28 08:33N 33°44' W 118°17'0 0.0
2015-Mar-28 07:33N 33°44' W 118°17'0 0.0
2015-Mar-28 06:33N 33°44' W 118°17'0 0.0
2015-Mar-28 05:32N 33°44' W 118°17'0 0.0
2015-Mar-28 04:28N 33°44' W 118°17'0 0.0
2015-Mar-28 03:33N 33°44' W 118°17'0 0.0
2015-Mar-28 02:31N 33°44' W 118°17'0 0.0
2015-Mar-28 01:32N 33°44' W 118°17'0 0.0
2015-Mar-28 00:29N 33°44' W 118°17'0 0.0
2015-Mar-27 23:30N 33°44' W 118°17'1 1.6
2015-Mar-27 22:33N 33°44' W 118°15'1 1.2
2015-Mar-27 21:33N 33°43' W 118°15'1 1.3
2015-Mar-27 20:33N 33°44' W 118°16'1 0.3
2015-Mar-27 17:30N 33°44' W 118°17'0 0.0
2015-Mar-27 16:22N 33°44' W 118°17'0 0.0
2015-Mar-27 15:33N 33°44' W 118°17'1 0.3
2015-Mar-27 13:19N 33°44' W 118°16'2 2.7
2015-Mar-27 12:33N 33°45' W 118°14'1 0.7
2015-Mar-27 11:33N 33°45' W 118°14'2 2.0
2015-Mar-27 10:33N 33°43' W 118°12'4 3.8
2015-Mar-27 09:33N 33°44' W 118°17'0 0.1
2015-Mar-27 08:34N 33°44' W 118°17'2 0.4
2015-Mar-27 03:33N 33°43' W 118°15'3 2.5
2015-Mar-27 02:34N 33°45' W 118°14'1 0.5
2015-Mar-27 01:33N 33°45' W 118°14'2 2.0
2015-Mar-27 00:31N 33°43' W 118°16'1 0.7
2015-Mar-26 23:33N 33°44' W 118°15'1 0.7
2015-Mar-26 21:31N 33°44' W 118°17'0 0.0
2015-Mar-26 20:33N 33°44' W 118°17'1 0.9
2015-Mar-26 19:29N 33°45' W 118°16'1 0.5
2015-Mar-26 18:33N 33°45' W 118°16'0 0.5
2015-Mar-26 17:33N 33°44' W 118°17'0 0.0
2015-Mar-26 16:32N 33°44' W 118°17'0 0.0
2015-Mar-26 15:33N 33°44' W 118°17'1 0.8
2015-Mar-26 14:33N 33°44' W 118°16'1 0.5
2015-Mar-26 13:33N 33°43' W 118°16'0 0.4
2015-Mar-26 12:33N 33°43' W 118°16'1 1.4
2015-Mar-26 11:33N 33°44' W 118°17'0 0.0
2015-Mar-26 10:33N 33°44' W 118°17'0 0.0
2015-Mar-26 09:33N 33°44' W 118°17'0 0.0
2015-Mar-26 08:33N 33°44' W 118°17'0 0.0
2015-Mar-26 07:33N 33°44' W 118°17'0 0.0
2015-Mar-26 06:33N 33°44' W 118°17'0 0.0
2015-Mar-26 05:33N 33°44' W 118°17'0 0.0
2015-Mar-26 03:05N 33°44' W 118°17'0 0.0
2015-Mar-26 02:31N 33°44' W 118°17'3 2.8
2015-Mar-26 01:33N 33°43' W 118°14'2 2.1
2015-Mar-26 00:33N 33°45' W 118°13'0 0.4
2015-Mar-25 23:33N 33°45' W 118°13'0 0.0
2015-Mar-25 22:33N 33°45' W 118°13'1 1.0
2015-Mar-25 21:33N 33°44' W 118°12'1 1.0
2015-Mar-25 20:33N 33°44' W 118°12'3 2.7
2015-Mar-25 19:33N 33°43' W 118°15'2 2.2
2015-Mar-25 18:32N 33°44' W 118°17'0 0.0
2015-Mar-25 17:32N 33°44' W 118°17'0 0.0
2015-Mar-25 16:33N 33°44' W 118°17'0 0.0
2015-Mar-25 15:26N 33°44' W 118°17'1 0.9
2015-Mar-25 14:28N 33°45' W 118°16'0 0.4
2015-Mar-25 13:33N 33°45' W 118°16'2 2.3
2015-Mar-25 12:33N 33°43' W 118°15'3 3.3
2015-Mar-25 11:33N 33°46' W 118°16'1 0.6
2015-Mar-25 10:20N 33°45' W 118°16'3 3.8
2015-Mar-25 09:33N 33°43' W 118°13'1 0.7
2015-Mar-25 08:33N 33°44' W 118°13'3 3.1
2015-Mar-25 07:33N 33°44' W 118°17'0 0.0
2015-Mar-25 06:31N 33°44' W 118°17'0 0.0
2015-Mar-25 05:32N 33°44' W 118°17'0 0.0
2015-Mar-25 04:33N 33°44' W 118°17'0 0.0
2015-Mar-25 03:33N 33°44' W 118°17'0 0.0
2015-Mar-25 02:03N 33°44' W 118°17'0 0.0
2015-Mar-25 01:30N 33°44' W 118°17'0 0.0
2015-Mar-25 00:24N 33°44' W 118°17'1 0.7
2015-Mar-24 23:15N 33°45' W 118°16'0 0.1
2015-Mar-24 21:12N 33°45' W 118°16'0 0.3
2015-Mar-24 20:15N 33°45' W 118°17'1 0.5
2015-Mar-24 18:15N 33°44' W 118°17'0 0.0
2015-Mar-24 17:18N 33°44' W 118°17'3 0.8
2015-Mar-24 13:23N 33°45' W 118°13'1 1.4
2015-Mar-24 12:33N 33°46' W 118°13'0 0.0
2015-Mar-24 11:33N 33°46' W 118°13'5 4.5
2015-Mar-24 10:32N 33°42' W 118°10'3 2.8
2015-Mar-24 09:22N 33°45' W 118°13'0 0.1
2015-Mar-24 08:33N 33°45' W 118°13'0 0.0
2015-Mar-24 07:32N 33°45' W 118°13'1 0.5
2015-Mar-24 06:28N 33°45' W 118°12'0 0.5
2015-Mar-24 05:32N 33°45' W 118°13'0 0.2
2015-Mar-24 04:09N 33°45' W 118°13'0 0.0
2015-Mar-24 03:33N 33°45' W 118°13'0 0.0
2015-Mar-24 02:10N 33°45' W 118°13'3 3.7
2015-Mar-24 01:23N 33°44' W 118°10'0 0.1
2015-Mar-24 00:33N 33°44' W 118°10'6 2.4
2015-Mar-23 22:11N 33°44' W 118°17'0 0.0
2015-Mar-23 21:32N 33°44' W 118°17'0 0.0
2015-Mar-23 20:10N 33°44' W 118°17'0 0.0
2015-Mar-23 19:29N 33°44' W 118°17'0 0.0
2015-Mar-23 18:33N 33°44' W 118°17'0 0.0
2015-Mar-23 16:24N 33°44' W 118°17'0 0.0
2015-Mar-23 15:13N 33°44' W 118°17'0 0.0
2015-Mar-23 11:13N 33°44' W 118°17'4 0.4
2015-Mar-23 03:11N 33°45' W 118°12'4 1.0
2015-Mar-22 23:33N 33°44' W 118°17'1 0.1
2015-Mar-22 11:22N 33°45' W 118°16'1 0.7
2015-Mar-22 10:31N 33°45' W 118°16'3 0.4
2015-Mar-22 04:20N 33°46' W 118°13'1 0.6
2015-Mar-22 02:30N 33°45' W 118°13'3 0.4
2015-Mar-21 19:16N 33°44' W 118°17'4 1.0
2015-Mar-21 15:11N 33°44' W 118°12'2 0.8
2015-Mar-21 13:18N 33°44' W 118°14'3 1.0
2015-Mar-21 10:33N 33°44' W 118°17'0 0.0
2015-Mar-21 09:19N 33°44' W 118°17'0 0.0
2015-Mar-21 04:24N 33°44' W 118°17'1 0.3
2015-Mar-21 02:26N 33°44' W 118°16'1 1.3
2015-Mar-21 01:33N 33°44' W 118°15'0 0.2
2015-Mar-21 00:33N 33°44' W 118°15'1 1.5
2015-Mar-20 23:33N 33°44' W 118°17'1 1.0
2015-Mar-20 22:32N 33°45' W 118°16'1 0.6
2015-Mar-20 21:33N 33°46' W 118°16'3 1.2
2015-Mar-20 19:14N 33°43' W 118°13'2 2.1
2015-Mar-20 18:26N 33°45' W 118°13'0 0.3
2015-Mar-20 17:33N 33°45' W 118°13'1 1.3
2015-Mar-20 16:32N 33°44' W 118°13'1 0.3
2015-Mar-20 14:03N 33°45' W 118°13'2 2.9
2015-Mar-20 13:27N 33°46' W 118°13'1 0.7
2015-Mar-20 11:32N 33°45' W 118°13'0 0.1
2015-Mar-20 10:33N 33°45' W 118°13'0 0.0
2015-Mar-20 09:33N 33°45' W 118°13'0 0.0
2015-Mar-20 08:33N 33°45' W 118°13'0 0.0
2015-Mar-20 07:33N 33°45' W 118°13'1 1.3
2015-Mar-20 06:33N 33°46' W 118°13'0 0.0
2015-Mar-20 05:11N 33°46' W 118°13'1 1.3
2015-Mar-20 04:34N 33°45' W 118°13'3 0.8
2015-Mar-20 00:31N 33°44' W 118°17'0 0.0
2015-Mar-19 23:18N 33°44' W 118°17'0 0.0
2015-Mar-19 21:05N 33°44' W 118°17'0 0.0
2015-Mar-19 20:25N 33°44' W 118°17'0 0.0
2015-Mar-19 19:33N 33°44' W 118°17'0 0.0
2015-Mar-19 17:32N 33°44' W 118°17'0 0.0
2015-Mar-19 16:30N 33°44' W 118°17'0 0.0
2015-Mar-19 15:26N 33°44' W 118°17'4 3.7
2015-Mar-19 14:29N 33°44' W 118°12'4 1.8
2015-Mar-19 12:31N 33°45' W 118°17'1 0.5
2015-Mar-19 11:26N 33°46' W 118°16'0 0.3
2015-Mar-19 10:25N 33°46' W 118°16'2 0.3
2015-Mar-19 04:19N 33°44' W 118°16'2 2.1
2015-Mar-19 03:33N 33°45' W 118°16'0 0.3
2015-Mar-19 02:33N 33°45' W 118°16'  

Dump ship's entire track history